sensor_id;sensor_type;location;lat;lon;timestamp;pressure;altitude;pressure_sealevel;temperature;humidity
39051;BME280;24805;55.852;37.644;2023-07-28T00:00:46;97797.50;;;23.31;71.81
39051;BME280;24805;55.852;37.644;2023-07-28T00:05:48;97846.41;;;23.35;72.22
39051;BME280;24805;55.852;37.644;2023-07-28T00:10:51;97844.19;;;23.37;71.58
39051;BME280;24805;55.852;37.644;2023-07-28T00:15:53;97848.00;;;23.36;71.68
39051;BME280;24805;55.852;37.644;2023-07-28T00:20:55;97848.09;;;23.31;71.67
39051;BME280;24805;55.852;37.644;2023-07-28T00:25:58;97868.63;;;23.32;71.38
39051;BME280;24805;55.852;37.644;2023-07-28T00:31:00;97868.94;;;23.30;71.12
39051;BME280;24805;55.852;37.644;2023-07-28T00:36:03;97887.38;;;23.28;71.05
39051;BME280;24805;55.852;37.644;2023-07-28T00:41:06;97876.94;;;23.22;71.47
39051;BME280;24805;55.852;37.644;2023-07-28T00:46:10;97875.16;;;23.17;71.63
39051;BME280;24805;55.852;37.644;2023-07-28T00:51:12;97874.22;;;23.08;71.79
39051;BME280;24805;55.852;37.644;2023-07-28T00:56:15;97868.09;;;23.02;71.91
39051;BME280;24805;55.852;37.644;2023-07-28T01:01:18;97862.78;;;22.97;72.22
39051;BME280;24805;55.852;37.644;2023-07-28T01:06:47;97849.59;;;23.23;72.05
39051;BME280;24805;55.852;37.644;2023-07-28T01:11:56;97847.16;;;23.08;72.22
39051;BME280;24805;55.852;37.644;2023-07-28T01:16:58;97854.47;;;22.94;72.12
39051;BME280;24805;55.852;37.644;2023-07-28T01:22:41;97838.56;;;23.20;71.54
39051;BME280;24805;55.852;37.644;2023-07-28T01:27:50;97834.34;;;23.00;71.99
39051;BME280;24805;55.852;37.644;2023-07-28T01:32:54;97837.53;;;22.88;71.83
39051;BME280;24805;55.852;37.644;2023-07-28T01:37:58;97829.63;;;22.92;71.86
39051;BME280;24805;55.852;37.644;2023-07-28T01:43:00;97817.41;;;22.94;71.94
39051;BME280;24805;55.852;37.644;2023-07-28T01:48:03;97816.50;;;22.99;71.95
39051;BME280;24805;55.852;37.644;2023-07-28T01:53:07;97815.31;;;23.05;71.69
39051;BME280;24805;55.852;37.644;2023-07-28T01:58:09;97812.22;;;22.98;71.16
39051;BME280;24805;55.852;37.644;2023-07-28T02:03:11;97805.88;;;23.02;71.30
39051;BME280;24805;55.852;37.644;2023-07-28T02:08:14;97805.59;;;23.04;70.92
39051;BME280;24805;55.852;37.644;2023-07-28T02:13:16;97815.59;;;23.03;70.92
39051;BME280;24805;55.852;37.644;2023-07-28T02:18:18;97815.81;;;23.07;70.73
39051;BME280;24805;55.852;37.644;2023-07-28T02:23:20;97800.91;;;23.10;70.64
39051;BME280;24805;55.852;37.644;2023-07-28T02:28:22;97800.81;;;23.15;70.66
39051;BME280;24805;55.852;37.644;2023-07-28T02:33:27;97809.81;;;23.24;70.83
39051;BME280;24805;55.852;37.644;2023-07-28T02:38:31;97792.56;;;23.06;70.23
39051;BME280;24805;55.852;37.644;2023-07-28T02:43:33;97819.75;;;23.15;70.63
39051;BME280;24805;55.852;37.644;2023-07-28T02:48:36;97830.56;;;23.15;70.50
39051;BME280;24805;55.852;37.644;2023-07-28T02:53:38;97846.78;;;23.15;70.60
39051;BME280;24805;55.852;37.644;2023-07-28T02:58:41;97864.41;;;23.12;70.75
39051;BME280;24805;55.852;37.644;2023-07-28T03:03:43;97846.56;;;23.11;70.40
39051;BME280;24805;55.852;37.644;2023-07-28T03:08:46;97853.59;;;23.12;70.09
39051;BME280;24805;55.852;37.644;2023-07-28T03:14:06;97821.03;;;23.17;70.64
39051;BME280;24805;55.852;37.644;2023-07-28T03:19:08;97829.84;;;23.23;70.06
39051;BME280;24805;55.852;37.644;2023-07-28T03:24:10;97887.56;;;23.32;70.05
39051;BME280;24805;55.852;37.644;2023-07-28T03:29:13;97880.75;;;23.21;70.06
39051;BME280;24805;55.852;37.644;2023-07-28T03:34:15;97860.44;;;23.37;69.27
39051;BME280;24805;55.852;37.644;2023-07-28T03:39:18;97849.09;;;23.62;68.58
39051;BME280;24805;55.852;37.644;2023-07-28T03:44:23;97887.47;;;23.78;68.65
39051;BME280;24805;55.852;37.644;2023-07-28T03:49:25;97957.78;;;23.69;68.07
39051;BME280;24805;55.852;37.644;2023-07-28T03:54:28;97989.63;;;23.45;70.47
39051;BME280;24805;55.852;37.644;2023-07-28T03:59:30;98059.75;;;22.90;72.47
39051;BME280;24805;55.852;37.644;2023-07-28T04:04:32;98097.44;;;22.15;74.84
39051;BME280;24805;55.852;37.644;2023-07-28T04:09:34;98017.44;;;21.72;78.26
39051;BME280;24805;55.852;37.644;2023-07-28T04:14:37;97950.41;;;21.55;78.78
39051;BME280;24805;55.852;37.644;2023-07-28T04:19:39;97823.38;;;21.51;80.32
39051;BME280;24805;55.852;37.644;2023-07-28T04:24:41;97749.84;;;21.59;81.21
39051;BME280;24805;55.852;37.644;2023-07-28T04:29:43;97747.94;;;21.60;80.53
39051;BME280;24805;55.852;37.644;2023-07-28T04:34:48;97719.38;;;21.59;81.23
39051;BME280;24805;55.852;37.644;2023-07-28T04:39:58;97765.75;;;21.61;81.86
39051;BME280;24805;55.852;37.644;2023-07-28T04:45:07;97774.44;;;21.58;81.80
39051;BME280;24805;55.852;37.644;2023-07-28T04:50:09;97788.00;;;21.53;81.33
39051;BME280;24805;55.852;37.644;2023-07-28T04:55:30;97778.59;;;21.50;81.99
39051;BME280;24805;55.852;37.644;2023-07-28T05:00:32;97769.69;;;21.50;81.34
39051;BME280;24805;55.852;37.644;2023-07-28T05:05:35;97782.91;;;21.51;82.21
39051;BME280;24805;55.852;37.644;2023-07-28T05:10:41;97782.75;;;21.61;81.65
39051;BME280;24805;55.852;37.644;2023-07-28T05:15:45;97793.84;;;21.79;82.03
39051;BME280;24805;55.852;37.644;2023-07-28T05:20:58;97805.13;;;21.99;81.51
39051;BME280;24805;55.852;37.644;2023-07-28T05:26:00;97812.66;;;22.21;80.44
39051;BME280;24805;55.852;37.644;2023-07-28T05:31:06;97823.03;;;22.65;81.00
39051;BME280;24805;55.852;37.644;2023-07-28T05:36:08;97829.00;;;22.81;79.91
39051;BME280;24805;55.852;37.644;2023-07-28T05:41:11;97846.38;;;22.94;79.58
39051;BME280;24805;55.852;37.644;2023-07-28T05:46:13;97838.25;;;23.21;77.99
39051;BME280;24805;55.852;37.644;2023-07-28T05:51:16;97832.16;;;23.70;77.06
39051;BME280;24805;55.852;37.644;2023-07-28T05:56:18;97838.34;;;23.85;76.71
39051;BME280;24805;55.852;37.644;2023-07-28T06:01:20;97832.72;;;23.81;75.33
39051;BME280;24805;55.852;37.644;2023-07-28T06:06:42;97837.53;;;23.84;74.77
39051;BME280;24805;55.852;37.644;2023-07-28T06:11:46;97832.56;;;23.64;75.03
39051;BME280;24805;55.852;37.644;2023-07-28T06:16:48;97842.59;;;23.36;73.58
39051;BME280;24805;55.852;37.644;2023-07-28T06:21:51;97865.47;;;23.57;76.19
39051;BME280;24805;55.852;37.644;2023-07-28T06:26:53;97838.75;;;23.78;73.54
39051;BME280;24805;55.852;37.644;2023-07-28T06:31:56;97833.94;;;24.25;75.44
39051;BME280;24805;55.852;37.644;2023-07-28T06:36:58;97843.69;;;25.32;71.79
39051;BME280;24805;55.852;37.644;2023-07-28T06:42:00;97873.16;;;25.56;69.39
39051;BME280;24805;55.852;37.644;2023-07-28T06:47:04;97937.03;;;25.00;67.88
39051;BME280;24805;55.852;37.644;2023-07-28T06:52:07;97994.38;;;24.22;67.14
39051;BME280;24805;55.852;37.644;2023-07-28T06:57:10;98127.25;;;23.70;71.38
39051;BME280;24805;55.852;37.644;2023-07-28T07:02:12;98119.72;;;22.74;74.53
39051;BME280;24805;55.852;37.644;2023-07-28T07:07:15;98039.56;;;21.97;77.41
39051;BME280;24805;55.852;37.644;2023-07-28T07:12:17;98012.56;;;21.74;79.03
39051;BME280;24805;55.852;37.644;2023-07-28T07:17:19;97943.84;;;21.61;79.50
39051;BME280;24805;55.852;37.644;2023-07-28T07:22:21;97923.16;;;21.56;81.41
39051;BME280;24805;55.852;37.644;2023-07-28T07:27:25;97931.00;;;21.77;82.58
39051;BME280;24805;55.852;37.644;2023-07-28T07:32:27;97925.59;;;22.00;82.65
39051;BME280;24805;55.852;37.644;2023-07-28T07:37:29;97882.53;;;22.28;82.43
39051;BME280;24805;55.852;37.644;2023-07-28T07:42:46;97895.41;;;22.68;81.09
39051;BME280;24805;55.852;37.644;2023-07-28T07:47:48;97931.16;;;22.47;79.15
39051;BME280;24805;55.852;37.644;2023-07-28T07:52:51;97908.00;;;22.41;79.48
39051;BME280;24805;55.852;37.644;2023-07-28T07:57:53;97916.50;;;22.53;81.41
39051;BME280;24805;55.852;37.644;2023-07-28T08:02:55;97921.28;;;22.75;79.17
39051;BME280;24805;55.852;37.644;2023-07-28T08:07:57;97941.63;;;23.05;78.73
39051;BME280;24805;55.852;37.644;2023-07-28T08:13:00;97918.00;;;23.56;78.36
39051;BME280;24805;55.852;37.644;2023-07-28T08:18:02;97939.09;;;24.59;77.17
39051;BME280;24805;55.852;37.644;2023-07-28T08:23:05;97933.56;;;26.19;72.45
39051;BME280;24805;55.852;37.644;2023-07-28T08:28:08;97937.91;;;27.99;66.44
39051;BME280;24805;55.852;37.644;2023-07-28T08:33:12;97938.22;;;29.10;61.45
39051;BME280;24805;55.852;37.644;2023-07-28T08:38:14;97948.84;;;29.94;59.56
39051;BME280;24805;55.852;37.644;2023-07-28T08:43:17;97963.47;;;30.62;54.91
39051;BME280;24805;55.852;37.644;2023-07-28T08:48:20;97974.69;;;30.45;54.71
39051;BME280;24805;55.852;37.644;2023-07-28T08:53:23;97975.97;;;30.23;52.65
39051;BME280;24805;55.852;37.644;2023-07-28T08:58:25;97973.09;;;29.38;54.04
39051;BME280;24805;55.852;37.644;2023-07-28T09:03:28;97967.53;;;28.39;56.21
39051;BME280;24805;55.852;37.644;2023-07-28T09:08:32;97991.28;;;27.71;58.29
39051;BME280;24805;55.852;37.644;2023-07-28T09:13:39;98005.84;;;28.13;58.89
39051;BME280;24805;55.852;37.644;2023-07-28T09:18:45;97991.25;;;29.42;68.45
39051;BME280;24805;55.852;37.644;2023-07-28T09:23:48;97989.63;;;28.46;56.37
39051;BME280;24805;55.852;37.644;2023-07-28T09:28:50;98001.25;;;27.50;58.25
39051;BME280;24805;55.852;37.644;2023-07-28T09:33:53;98009.00;;;26.70;59.80
39051;BME280;24805;55.852;37.644;2023-07-28T09:38:56;98043.19;;;26.36;60.37
39051;BME280;24805;55.852;37.644;2023-07-28T09:44:00;98082.16;;;26.01;60.50
39051;BME280;24805;55.852;37.644;2023-07-28T09:49:10;98091.13;;;25.70;61.58
39051;BME280;24805;55.852;37.644;2023-07-28T09:54:23;98074.28;;;25.37;64.08
39051;BME280;24805;55.852;37.644;2023-07-28T09:59:41;98053.06;;;25.17;64.22
39051;BME280;24805;55.852;37.644;2023-07-28T10:04:44;98075.03;;;24.80;64.07
39051;BME280;24805;55.852;37.644;2023-07-28T10:09:47;98051.25;;;24.77;64.16
39051;BME280;24805;55.852;37.644;2023-07-28T10:15:00;98055.63;;;25.00;64.51
39051;BME280;24805;55.852;37.644;2023-07-28T10:20:06;98061.88;;;24.87;66.78
39051;BME280;24805;55.852;37.644;2023-07-28T10:25:22;98080.84;;;25.00;66.67
39051;BME280;24805;55.852;37.644;2023-07-28T10:30:25;98051.19;;;24.54;68.74
39051;BME280;24805;55.852;37.644;2023-07-28T10:35:28;98051.56;;;24.20;68.17
39051;BME280;24805;55.852;37.644;2023-07-28T10:40:34;98031.53;;;24.08;72.89
39051;BME280;24805;55.852;37.644;2023-07-28T10:45:37;97989.59;;;23.91;72.11
39051;BME280;24805;55.852;37.644;2023-07-28T10:50:40;98008.25;;;23.93;71.67
39051;BME280;24805;55.852;37.644;2023-07-28T10:55:44;97989.59;;;24.05;73.61
39051;BME280;24805;55.852;37.644;2023-07-28T11:00:46;97972.91;;;24.39;73.31
39051;BME280;24805;55.852;37.644;2023-07-28T11:05:49;97989.41;;;24.65;70.46
39051;BME280;24805;55.852;37.644;2023-07-28T11:10:52;97977.09;;;24.95;69.44
39051;BME280;24805;55.852;37.644;2023-07-28T11:15:55;97958.38;;;25.16;68.29
39051;BME280;24805;55.852;37.644;2023-07-28T11:20:57;97952.13;;;25.68;67.03
39051;BME280;24805;55.852;37.644;2023-07-28T11:26:00;97996.06;;;26.10;64.40
39051;BME280;24805;55.852;37.644;2023-07-28T11:31:02;97988.41;;;26.21;64.19
39051;BME280;24805;55.852;37.644;2023-07-28T11:36:06;98043.50;;;25.95;64.08
39051;BME280;24805;55.852;37.644;2023-07-28T11:41:09;98085.81;;;25.43;63.55
39051;BME280;24805;55.852;37.644;2023-07-28T11:46:44;98074.59;;;25.36;66.27
39051;BME280;24805;55.852;37.644;2023-07-28T11:51:47;98058.09;;;24.74;65.79
39051;BME280;24805;55.852;37.644;2023-07-28T11:56:53;98062.16;;;24.99;65.28
39051;BME280;24805;55.852;37.644;2023-07-28T12:02:03;98059.94;;;25.46;64.47
39051;BME280;24805;55.852;37.644;2023-07-28T12:07:14;98083.00;;;25.79;62.87
39051;BME280;24805;55.852;37.644;2023-07-28T12:12:20;98095.84;;;26.18;60.63
39051;BME280;24805;55.852;37.644;2023-07-28T12:17:26;98108.63;;;26.49;59.81
39051;BME280;24805;55.852;37.644;2023-07-28T12:22:50;98106.75;;;26.27;58.49
39051;BME280;24805;55.852;37.644;2023-07-28T12:28:13;98124.03;;;26.00;59.05
39051;BME280;24805;55.852;37.644;2023-07-28T12:33:18;98132.56;;;25.76;59.78
39051;BME280;24805;55.852;37.644;2023-07-28T12:38:23;98141.16;;;24.97;57.88
39051;BME280;24805;55.852;37.644;2023-07-28T12:43:29;98156.66;;;24.23;59.83
39051;BME280;24805;55.852;37.644;2023-07-28T12:48:34;98168.91;;;23.75;60.28
39051;BME280;24805;55.852;37.644;2023-07-28T12:53:49;98161.50;;;23.43;61.20
39051;BME280;24805;55.852;37.644;2023-07-28T12:58:51;98184.19;;;23.28;62.10
39051;BME280;24805;55.852;37.644;2023-07-28T13:03:56;98171.97;;;23.12;62.51
39051;BME280;24805;55.852;37.644;2023-07-28T13:08:59;98178.41;;;22.97;62.80
39051;BME280;24805;55.852;37.644;2023-07-28T13:14:04;98183.69;;;22.83;62.91
39051;BME280;24805;55.852;37.644;2023-07-28T13:19:07;98185.75;;;22.91;63.41
39051;BME280;24805;55.852;37.644;2023-07-28T13:24:09;98187.59;;;22.96;63.77
39051;BME280;24805;55.852;37.644;2023-07-28T13:29:11;98181.22;;;22.87;63.87
39051;BME280;24805;55.852;37.644;2023-07-28T13:34:14;98186.91;;;22.85;64.93
39051;BME280;24805;55.852;37.644;2023-07-28T13:39:16;98184.94;;;22.67;64.14
39051;BME280;24805;55.852;37.644;2023-07-28T13:44:18;98173.28;;;22.48;65.30
39051;BME280;24805;55.852;37.644;2023-07-28T13:49:20;98196.94;;;22.32;65.24
39051;BME280;24805;55.852;37.644;2023-07-28T13:54:23;98186.63;;;22.10;66.55
39051;BME280;24805;55.852;37.644;2023-07-28T13:59:26;98160.81;;;21.94;67.63
39051;BME280;24805;55.852;37.644;2023-07-28T14:04:28;98104.94;;;21.94;68.09
39051;BME280;24805;55.852;37.644;2023-07-28T14:09:33;98093.97;;;21.81;67.36
39051;BME280;24805;55.852;37.644;2023-07-28T14:14:35;98103.56;;;21.97;68.10
39051;BME280;24805;55.852;37.644;2023-07-28T14:19:40;98105.09;;;22.32;67.18
39051;BME280;24805;55.852;37.644;2023-07-28T14:24:43;98083.88;;;22.44;66.02
39051;BME280;24805;55.852;37.644;2023-07-28T14:29:45;98113.34;;;22.64;65.54
39051;BME280;24805;55.852;37.644;2023-07-28T14:34:47;98150.63;;;22.91;66.19
39051;BME280;24805;55.852;37.644;2023-07-28T14:39:50;98171.16;;;23.11;64.50
39051;BME280;24805;55.852;37.644;2023-07-28T14:44:52;98169.69;;;23.19;63.97
39051;BME280;24805;55.852;37.644;2023-07-28T14:49:54;98162.31;;;23.06;64.22
39051;BME280;24805;55.852;37.644;2023-07-28T14:54:58;98165.59;;;23.02;65.02
39051;BME280;24805;55.852;37.644;2023-07-28T15:00:02;98181.81;;;23.02;65.43
39051;BME280;24805;55.852;37.644;2023-07-28T15:05:07;98173.19;;;23.19;65.23
39051;BME280;24805;55.852;37.644;2023-07-28T15:10:09;98207.38;;;23.34;63.45
39051;BME280;24805;55.852;37.644;2023-07-28T15:15:12;98211.59;;;23.40;62.97
39051;BME280;24805;55.852;37.644;2023-07-28T15:20:14;98209.94;;;23.44;62.90
39051;BME280;24805;55.852;37.644;2023-07-28T15:25:18;98214.25;;;23.45;63.25
39051;BME280;24805;55.852;37.644;2023-07-28T15:30:21;98210.94;;;23.53;63.86
39051;BME280;24805;55.852;37.644;2023-07-28T15:35:23;98218.94;;;23.58;62.93
39051;BME280;24805;55.852;37.644;2023-07-28T15:40:25;98196.72;;;23.61;63.18
39051;BME280;24805;55.852;37.644;2023-07-28T15:45:28;98183.75;;;23.58;62.87
39051;BME280;24805;55.852;37.644;2023-07-28T15:50:30;98196.16;;;23.41;63.58
39051;BME280;24805;55.852;37.644;2023-07-28T15:55:33;98203.28;;;23.18;63.39
39051;BME280;24805;55.852;37.644;2023-07-28T16:00:36;98209.28;;;22.91;63.64
39051;BME280;24805;55.852;37.644;2023-07-28T16:05:38;98180.47;;;22.57;63.57
39051;BME280;24805;55.852;37.644;2023-07-28T16:10:41;98197.13;;;22.41;63.64
39051;BME280;24805;55.852;37.644;2023-07-28T16:15:44;98200.63;;;22.17;64.38
39051;BME280;24805;55.852;37.644;2023-07-28T16:20:46;98218.41;;;22.18;64.92
39051;BME280;24805;55.852;37.644;2023-07-28T16:25:48;98224.44;;;22.10;65.28
39051;BME280;24805;55.852;37.644;2023-07-28T16:30:51;98249.31;;;22.07;65.24
39051;BME280;24805;55.852;37.644;2023-07-28T16:35:53;98257.44;;;22.02;64.97
39051;BME280;24805;55.852;37.644;2023-07-28T16:40:55;98260.41;;;22.00;64.83
39051;BME280;24805;55.852;37.644;2023-07-28T16:45:57;98217.31;;;21.85;64.40
39051;BME280;24805;55.852;37.644;2023-07-28T16:51:00;98235.16;;;21.81;64.36
39051;BME280;24805;55.852;37.644;2023-07-28T16:56:02;98239.00;;;21.75;64.58
39051;BME280;24805;55.852;37.644;2023-07-28T17:01:04;98238.50;;;21.68;64.88
39051;BME280;24805;55.852;37.644;2023-07-28T17:06:07;98243.66;;;21.59;65.45
39051;BME280;24805;55.852;37.644;2023-07-28T17:11:09;98243.47;;;21.51;66.02
39051;BME280;24805;55.852;37.644;2023-07-28T17:16:12;98251.34;;;21.42;66.07
39051;BME280;24805;55.852;37.644;2023-07-28T17:21:14;98253.81;;;21.34;66.04
39051;BME280;24805;55.852;37.644;2023-07-28T17:26:17;98253.84;;;21.23;66.25
39051;BME280;24805;55.852;37.644;2023-07-28T17:31:20;98261.69;;;21.20;66.42
39051;BME280;24805;55.852;37.644;2023-07-28T17:36:22;98245.00;;;21.13;66.76
39051;BME280;24805;55.852;37.644;2023-07-28T17:41:24;98252.56;;;21.06;66.76
39051;BME280;24805;55.852;37.644;2023-07-28T17:46:27;98257.16;;;21.00;67.08
39051;BME280;24805;55.852;37.644;2023-07-28T17:51:29;98268.53;;;20.97;67.48
39051;BME280;24805;55.852;37.644;2023-07-28T17:56:31;98263.69;;;20.89;67.28
39051;BME280;24805;55.852;37.644;2023-07-28T18:01:34;98275.81;;;20.86;68.03
39051;BME280;24805;55.852;37.644;2023-07-28T18:06:37;98273.66;;;20.83;68.23
39051;BME280;24805;55.852;37.644;2023-07-28T18:11:39;98279.09;;;20.78;67.86
39051;BME280;24805;55.852;37.644;2023-07-28T18:16:42;98262.41;;;20.66;66.53
39051;BME280;24805;55.852;37.644;2023-07-28T18:21:44;98255.69;;;20.53;66.94
39051;BME280;24805;55.852;37.644;2023-07-28T18:26:47;98264.31;;;20.45;67.60
39051;BME280;24805;55.852;37.644;2023-07-28T18:31:49;98249.22;;;20.34;68.15
39051;BME280;24805;55.852;37.644;2023-07-28T18:36:52;98237.66;;;20.23;68.75
39051;BME280;24805;55.852;37.644;2023-07-28T18:41:55;98248.41;;;20.18;69.30
39051;BME280;24805;55.852;37.644;2023-07-28T18:46:57;98263.25;;;20.11;69.93
39051;BME280;24805;55.852;37.644;2023-07-28T18:52:00;98264.03;;;20.06;70.48
39051;BME280;24805;55.852;37.644;2023-07-28T18:57:03;98279.94;;;20.08;69.89
39051;BME280;24805;55.852;37.644;2023-07-28T19:02:06;98279.66;;;19.99;69.88
39051;BME280;24805;55.852;37.644;2023-07-28T19:07:08;98283.72;;;19.97;70.02
39051;BME280;24805;55.852;37.644;2023-07-28T19:12:10;98249.78;;;19.90;69.08
39051;BME280;24805;55.852;37.644;2023-07-28T19:17:13;98243.56;;;19.85;69.64
39051;BME280;24805;55.852;37.644;2023-07-28T19:22:17;98275.59;;;19.81;69.81
39051;BME280;24805;55.852;37.644;2023-07-28T19:27:19;98282.84;;;19.81;70.21
39051;BME280;24805;55.852;37.644;2023-07-28T19:32:22;98294.97;;;19.83;70.34
39051;BME280;24805;55.852;37.644;2023-07-28T19:37:24;98300.91;;;19.90;69.71
39051;BME280;24805;55.852;37.644;2023-07-28T19:42:45;98305.50;;;19.90;70.43
39051;BME280;24805;55.852;37.644;2023-07-28T19:47:47;98310.03;;;19.79;70.12
39051;BME280;24805;55.852;37.644;2023-07-28T19:52:49;98322.69;;;19.84;69.88
39051;BME280;24805;55.852;37.644;2023-07-28T19:57:51;98333.44;;;19.74;68.90
39051;BME280;24805;55.852;37.644;2023-07-28T20:02:54;98344.44;;;19.62;67.52
39051;BME280;24805;55.852;37.644;2023-07-28T20:07:56;98339.78;;;19.47;67.35
39051;BME280;24805;55.852;37.644;2023-07-28T20:12:59;98340.81;;;19.31;67.46
39051;BME280;24805;55.852;37.644;2023-07-28T20:18:02;98343.44;;;19.16;67.53
39051;BME280;24805;55.852;37.644;2023-07-28T20:23:04;98350.06;;;18.98;68.47
39051;BME280;24805;55.852;37.644;2023-07-28T20:28:09;98358.84;;;18.88;69.26
39051;BME280;24805;55.852;37.644;2023-07-28T20:33:11;98362.56;;;18.82;69.54
39051;BME280;24805;55.852;37.644;2023-07-28T20:38:14;98355.72;;;18.65;69.76
39051;BME280;24805;55.852;37.644;2023-07-28T20:43:16;98382.59;;;18.65;69.97
39051;BME280;24805;55.852;37.644;2023-07-28T20:48:19;98376.63;;;18.57;69.69
39051;BME280;24805;55.852;37.644;2023-07-28T20:53:21;98381.22;;;18.62;70.04
39051;BME280;24805;55.852;37.644;2023-07-28T20:58:24;98390.50;;;18.49;69.90
39051;BME280;24805;55.852;37.644;2023-07-28T21:03:29;98391.81;;;18.47;69.47
39051;BME280;24805;55.852;37.644;2023-07-28T21:08:31;98403.81;;;18.39;70.01
39051;BME280;24805;55.852;37.644;2023-07-28T21:13:33;98396.38;;;18.46;70.77
39051;BME280;24805;55.852;37.644;2023-07-28T21:18:36;98395.06;;;18.49;70.74
39051;BME280;24805;55.852;37.644;2023-07-28T21:23:38;98405.56;;;18.50;71.39
39051;BME280;24805;55.852;37.644;2023-07-28T21:28:40;98414.22;;;18.57;71.01
39051;BME280;24805;55.852;37.644;2023-07-28T21:33:43;98413.97;;;18.59;71.08
39051;BME280;24805;55.852;37.644;2023-07-28T21:38:45;98422.88;;;18.65;71.21
39051;BME280;24805;55.852;37.644;2023-07-28T21:43:47;98439.00;;;18.65;70.72
39051;BME280;24805;55.852;37.644;2023-07-28T21:48:49;98446.81;;;18.66;70.13
39051;BME280;24805;55.852;37.644;2023-07-28T21:53:52;98420.41;;;18.58;70.73
39051;BME280;24805;55.852;37.644;2023-07-28T21:58:55;98401.50;;;18.48;70.06
39051;BME280;24805;55.852;37.644;2023-07-28T22:03:57;98406.88;;;18.48;70.39
39051;BME280;24805;55.852;37.644;2023-07-28T22:08:59;98402.00;;;18.45;70.39
39051;BME280;24805;55.852;37.644;2023-07-28T22:14:03;98379.13;;;18.37;70.77
39051;BME280;24805;55.852;37.644;2023-07-28T22:19:05;98385.22;;;18.28;70.72
39051;BME280;24805;55.852;37.644;2023-07-28T22:24:07;98395.59;;;18.19;70.97
39051;BME280;24805;55.852;37.644;2023-07-28T22:29:10;98392.88;;;18.14;71.04
39051;BME280;24805;55.852;37.644;2023-07-28T22:34:12;98381.50;;;18.07;71.02
39051;BME280;24805;55.852;37.644;2023-07-28T22:39:15;98355.09;;;17.94;71.43
39051;BME280;24805;55.852;37.644;2023-07-28T22:44:17;98356.22;;;17.98;70.51
39051;BME280;24805;55.852;37.644;2023-07-28T22:49:19;98361.78;;;17.91;71.14
39051;BME280;24805;55.852;37.644;2023-07-28T22:54:21;98372.19;;;17.87;71.19
39051;BME280;24805;55.852;37.644;2023-07-28T22:59:24;98384.84;;;17.92;71.02
39051;BME280;24805;55.852;37.644;2023-07-28T23:04:26;98398.84;;;17.94;70.92
39051;BME280;24805;55.852;37.644;2023-07-28T23:09:28;98388.59;;;17.91;70.92
39051;BME280;24805;55.852;37.644;2023-07-28T23:14:31;98387.22;;;17.88;70.82
39051;BME280;24805;55.852;37.644;2023-07-28T23:19:33;98381.31;;;17.86;70.62
39051;BME280;24805;55.852;37.644;2023-07-28T23:24:35;98372.69;;;17.84;70.46
39051;BME280;24805;55.852;37.644;2023-07-28T23:29:37;98368.59;;;17.77;70.65
39051;BME280;24805;55.852;37.644;2023-07-28T23:34:40;98390.31;;;17.75;71.13
39051;BME280;24805;55.852;37.644;2023-07-28T23:39:42;98405.09;;;17.78;71.42
39051;BME280;24805;55.852;37.644;2023-07-28T23:44:44;98378.22;;;17.73;70.61
39051;BME280;24805;55.852;37.644;2023-07-28T23:49:47;98388.78;;;17.84;71.02
39051;BME280;24805;55.852;37.644;2023-07-28T23:54:49;98390.16;;;17.87;70.29
39051;BME280;24805;55.852;37.644;2023-07-28T23:59:53;98386.09;;;17.84;70.57
